Time;durP1;ratioP1;P1;durP2;ratioP2;P2;SDS_P1;SDS_P2;PMS_P1;PMS_P2;Temp;Humidity;BMP_temperature;BMP_pressure;BME280_temperature;BME280_humidity;BME280_pressure;Samples;Min_cycle;Max_cycle;Signal;HPM_P1;HPM_P2
2022/10/28 00:01:38;;;;;;;0.50;0.50;;;;;;;;;;5009692;28;20030;-85
2022/10/28 00:04:03;;;;;;;2.28;0.85;;;;;;;;;;5012747;28;20026;-86
2022/10/28 00:06:32;;;;;;;0.60;0.47;;;;;;;;;;5012880;28;20052;-83
2022/10/28 00:08:57;;;;;;;0.75;0.75;;;;;;;;;;5010387;28;20040;-86
2022/10/28 00:11:31;;;;;;;1.10;0.80;;;;;;;;;;4994536;28;20022;-85
2022/10/28 00:13:59;;;;;;;1.48;0.88;;;;;;;;;;5012941;28;20528;-85
2022/10/28 00:16:27;;;;;;;0.55;0.50;;;;;;;;;;5013031;28;20478;-85
2022/10/28 00:18:53;;;;;;;0.70;0.65;;;;;;;;;;5013369;28;20489;-85
2022/10/28 00:21:21;;;;;;;1.20;0.70;;;;;;;;;;4994845;28;20546;-85
2022/10/28 00:23:47;;;;;;;1.58;0.55;;;;;;;;;;5012126;28;20026;-85
2022/10/28 00:26:16;;;;;;;0.57;0.45;;;;;;;;;;5013152;28;20091;-85
2022/10/28 00:28:49;;;;;;;0.30;0.30;;;;;;;;;;5013051;28;20037;-85
2022/10/28 00:31:17;;;;;;;0.82;0.60;;;;;;;;;;4994924;28;20096;-84
2022/10/28 00:33:42;;;;;;;0.95;0.82;;;;;;;;;;5013113;28;20021;-85
2022/10/28 00:36:30;;;;;;;2.67;0.82;;;;;;;;;;5012665;28;20383;-84
2022/10/28 00:38:57;;;;;;;1.45;0.85;;;;;;;;;;4991997;28;20026;-85
2022/10/28 00:41:32;;;;;;;0.30;0.30;;;;;;;;;;5012612;28;20034;-85
2022/10/28 00:44:21;;;;;;;1.52;0.60;;;;;;;;;;5012682;28;20033;-85
2022/10/28 00:46:50;;;;;;;0.75;0.40;;;;;;;;;;5011983;28;20037;-85
2022/10/28 00:49:27;;;;;;;1.02;0.80;;;;;;;;;;5012586;28;20108;-86
2022/10/28 00:52:00;;;;;;;0.85;0.60;;;;;;;;;;5011867;28;20029;-85
2022/10/28 00:54:26;;;;;;;0.45;0.45;;;;;;;;;;5012463;28;20038;-84
2022/10/28 00:56:55;;;;;;;1.23;0.57;;;;;;;;;;5012056;28;20173;-86
2022/10/28 00:59:25;;;;;;;2.10;1.10;;;;;;;;;;4994503;28;20037;-83
2022/10/28 01:01:51;;;;;;;0.90;0.75;;;;;;;;;;5011462;28;20087;-84
2022/10/28 01:04:17;;;;;;;0.50;0.50;;;;;;;;;;5012309;28;20034;-83
2022/10/28 01:06:44;;;;;;;0.63;0.45;;;;;;;;;;5011916;28;20075;-84
2022/10/28 01:09:09;;;;;;;0.75;0.50;;;;;;;;;;5012518;28;20370;-83
2022/10/28 01:11:41;;;;;;;0.55;0.47;;;;;;;;;;5000791;28;20108;-85
2022/10/28 01:14:15;;;;;;;0.45;0.43;;;;;;;;;;5011820;28;20386;-83
2022/10/28 01:17:08;;;;;;;0.35;0.35;;;;;;;;;;5012190;28;20018;-84
2022/10/28 01:19:52;;;;;;;3.42;1.15;;;;;;;;;;5009579;28;20088;-86
2022/10/28 01:22:38;;;;;;;1.20;0.90;;;;;;;;;;5008266;28;20026;-84
2022/10/28 01:25:33;;;;;;;2.03;1.00;;;;;;;;;;5007659;28;20032;-85
2022/10/28 01:28:19;;;;;;;3.58;0.63;;;;;;;;;;5011882;28;20037;-83
2022/10/28 01:31:14;;;;;;;0.73;0.35;;;;;;;;;;5010268;28;20092;-84
2022/10/28 01:34:02;;;;;;;0.15;0.15;;;;;;;;;;5008840;28;20041;-84
2022/10/28 01:36:34;;;;;;;0.70;0.52;;;;;;;;;;4999419;28;20033;-85
2022/10/28 01:39:05;;;;;;;1.08;0.65;;;;;;;;;;5010993;28;20041;-86
2022/10/28 01:41:39;;;;;;;1.23;0.47;;;;;;;;;;5009440;28;20470;-86
2022/10/28 01:44:13;;;;;;;0.57;0.57;;;;;;;;;;4994171;28;20022;-84
2022/10/28 01:47:02;;;;;;;1.58;1.02;;;;;;;;;;5011841;28;20022;-84
2022/10/28 01:49:38;;;;;;;2.67;0.60;;;;;;;;;;4999668;28;20045;-85
2022/10/28 01:52:07;;;;;;;0.85;0.50;;;;;;;;;;4993141;28;20064;-85
2022/10/28 01:54:34;;;;;;;0.45;0.45;;;;;;;;;;5011923;28;20025;-85
2022/10/28 01:57:02;;;;;;;0.52;0.40;;;;;;;;;;5011631;28;20147;-86
2022/10/28 01:59:29;;;;;;;0.20;0.20;;;;;;;;;;5010459;28;20026;-85
2022/10/28 02:01:55;;;;;;;1.75;0.57;;;;;;;;;;4993586;28;20037;-84
2022/10/28 02:04:21;;;;;;;1.42;0.95;;;;;;;;;;4993556;28;20041;-85
2022/10/28 02:06:51;;;;;;;0.82;0.65;;;;;;;;;;5011016;28;20049;-85
2022/10/28 02:09:25;;;;;;;0.57;0.32;;;;;;;;;;5010651;28;21410;-85
2022/10/28 02:12:18;;;;;;;0.10;0.10;;;;;;;;;;5011941;28;20074;-84
2022/10/28 02:15:08;;;;;;;0.70;0.55;;;;;;;;;;4994145;28;20080;-86
2022/10/28 02:17:49;;;;;;;0.30;0.20;;;;;;;;;;5011267;28;20473;-85
2022/10/28 02:20:59;;;;;;;0.43;0.43;;;;;;;;;;4993143;28;20025;-85
2022/10/28 02:23:43;;;;;;;0.95;0.47;;;;;;;;;;4987026;28;20038;-85
2022/10/28 02:26:17;;;;;;;1.05;0.47;;;;;;;;;;5011061;28;20050;-83
2022/10/28 02:28:43;;;;;;;1.80;0.90;;;;;;;;;;5007931;28;20118;-86
2022/10/28 02:31:25;;;;;;;0.77;0.65;;;;;;;;;;5012036;28;20121;-84
2022/10/28 02:33:56;;;;;;;1.45;0.63;;;;;;;;;;5014940;28;20095;-83
2022/10/28 02:36:24;;;;;;;0.45;0.45;;;;;;;;;;5014632;28;20176;-86
2022/10/28 02:38:53;;;;;;;1.10;0.70;;;;;;;;;;4997125;28;20418;-86
2022/10/28 02:41:24;;;;;;;2.20;0.70;;;;;;;;;;5014395;28;20045;-85
2022/10/28 02:43:54;;;;;;;1.77;0.90;;;;;;;;;;5013648;28;20099;-83
2022/10/28 02:46:21;;;;;;;0.57;0.47;;;;;;;;;;5014950;28;20048;-86
2022/10/28 02:48:51;;;;;;;0.32;0.32;;;;;;;;;;5014731;28;20034;-84
2022/10/28 02:51:29;;;;;;;0.25;0.25;;;;;;;;;;4997236;28;20021;-82
2022/10/28 02:54:06;;;;;;;0.20;0.20;;;;;;;;;;5014593;28;20041;-85
2022/10/28 02:56:38;;;;;;;5.80;0.80;;;;;;;;;;5014705;28;20026;-84
2022/10/28 02:59:09;;;;;;;1.90;0.75;;;;;;;;;;5013769;28;20025;-86
2022/10/28 03:01:35;;;;;;;0.50;0.45;;;;;;;;;;5011131;28;20026;-84
2022/10/28 03:04:00;;;;;;;1.48;0.73;;;;;;;;;;5014286;28;20033;-84
2022/10/28 03:06:26;;;;;;;0.85;0.50;;;;;;;;;;5014552;28;20063;-86
2022/10/28 03:08:51;;;;;;;0.38;0.38;;;;;;;;;;5014479;28;20064;-84
2022/10/28 03:11:19;;;;;;;1.38;0.98;;;;;;;;;;5014486;28;20462;-84
2022/10/28 03:13:44;;;;;;;0.65;0.57;;;;;;;;;;5014246;28;20113;-84
2022/10/28 03:16:09;;;;;;;0.50;0.50;;;;;;;;;;5012672;28;20104;-84
2022/10/28 03:18:35;;;;;;;0.77;0.40;;;;;;;;;;5013798;28;20028;-83
2022/10/28 03:21:00;;;;;;;0.88;0.77;;;;;;;;;;5013700;28;20403;-83
2022/10/28 03:23:25;;;;;;;1.40;0.60;;;;;;;;;;5013668;28;20025;-83
2022/10/28 03:25:51;;;;;;;0.63;0.40;;;;;;;;;;5011311;28;20037;-84
2022/10/28 03:28:16;;;;;;;0.70;0.68;;;;;;;;;;4996310;28;20474;-83
2022/10/28 03:30:42;;;;;;;1.08;0.60;;;;;;;;;;5012817;28;20067;-83
2022/10/28 03:33:07;;;;;;;1.00;0.57;;;;;;;;;;5013893;28;20057;-84
2022/10/28 03:35:32;;;;;;;0.50;0.50;;;;;;;;;;5013672;28;20492;-85
2022/10/28 03:37:58;;;;;;;2.33;1.05;;;;;;;;;;5013703;28;20038;-82
2022/10/28 03:40:23;;;;;;;0.65;0.65;;;;;;;;;;4995802;28;20045;-83
2022/10/28 03:42:49;;;;;;;2.30;0.70;;;;;;;;;;4994423;28;20021;-83
2022/10/28 03:45:14;;;;;;;0.73;0.73;;;;;;;;;;5012435;28;20137;-85
2022/10/28 03:47:40;;;;;;;1.55;0.60;;;;;;;;;;5013563;28;20114;-82
2022/10/28 03:50:06;;;;;;;2.17;0.98;;;;;;;;;;5013768;28;20117;-83
2022/10/28 03:52:31;;;;;;;0.38;0.38;;;;;;;;;;5013280;28;20026;-83
2022/10/28 03:54:56;;;;;;;0.65;0.47;;;;;;;;;;5012363;28;20032;-83
2022/10/28 03:57:22;;;;;;;1.20;0.75;;;;;;;;;;5012919;28;20035;-83
2022/10/28 03:59:47;;;;;;;1.15;0.70;;;;;;;;;;5012744;28;20451;-83
2022/10/28 04:02:14;;;;;;;0.30;0.30;;;;;;;;;;5013169;28;20022;-84
2022/10/28 04:04:40;;;;;;;0.40;0.40;;;;;;;;;;5012503;28;20059;-83
2022/10/28 04:07:05;;;;;;;0.45;0.45;;;;;;;;;;4995244;28;20125;-83
2022/10/28 04:09:30;;;;;;;1.55;0.73;;;;;;;;;;5012849;28;20049;-82
2022/10/28 04:11:56;;;;;;;0.65;0.50;;;;;;;;;;5012668;28;20116;-83
2022/10/28 04:14:21;;;;;;;0.57;0.38;;;;;;;;;;5012681;28;20079;-83
2022/10/28 04:16:47;;;;;;;0.50;0.30;;;;;;;;;;5012779;28;20034;-84
2022/10/28 04:19:12;;;;;;;0.55;0.52;;;;;;;;;;5012378;28;20386;-84
2022/10/28 04:21:38;;;;;;;0.73;0.73;;;;;;;;;;4995136;28;20398;-84
2022/10/28 04:24:04;;;;;;;1.08;0.80;;;;;;;;;;5012566;28;20092;-84
2022/10/28 04:26:30;;;;;;;0.52;0.50;;;;;;;;;;5011917;28;20034;-84
2022/10/28 04:28:56;;;;;;;1.08;0.55;;;;;;;;;;4996609;28;20030;-83
2022/10/28 04:31:21;;;;;;;0.50;0.50;;;;;;;;;;5012234;28;20053;-84
2022/10/28 04:33:47;;;;;;;0.80;0.50;;;;;;;;;;5012287;28;20111;-83
2022/10/28 04:36:12;;;;;;;0.68;0.68;;;;;;;;;;4993796;28;20730;-84
2022/10/28 04:38:38;;;;;;;0.32;0.30;;;;;;;;;;4994752;28;20477;-84
2022/10/28 04:41:03;;;;;;;0.55;0.55;;;;;;;;;;5011031;28;20470;-85
2022/10/28 04:43:29;;;;;;;1.02;0.68;;;;;;;;;;5012191;28;20101;-82
2022/10/28 04:45:54;;;;;;;1.02;0.57;;;;;;;;;;5012316;28;20052;-83
2022/10/28 04:48:20;;;;;;;0.60;0.57;;;;;;;;;;4994110;28;20025;-82
2022/10/28 04:50:45;;;;;;;0.98;0.40;;;;;;;;;;5011728;28;20559;-83
2022/10/28 04:53:11;;;;;;;1.33;0.85;;;;;;;;;;5011066;28;20528;-85
2022/10/28 04:55:37;;;;;;;1.80;0.45;;;;;;;;;;5012047;28;20104;-83
2022/10/28 04:58:02;;;;;;;1.60;1.27;;;;;;;;;;5011880;28;20113;-84
2022/10/28 05:00:29;;;;;;;0.30;0.30;;;;;;;;;;5010781;28;20032;-85
2022/10/28 05:02:54;;;;;;;0.70;0.50;;;;;;;;;;5011677;28;20028;-85
2022/10/28 05:05:20;;;;;;;1.83;0.85;;;;;;;;;;5011588;28;20089;-84
2022/10/28 05:07:45;;;;;;;1.73;0.82;;;;;;;;;;5011628;28;20025;-86
2022/10/28 05:10:14;;;;;;;0.82;0.60;;;;;;;;;;5011392;28;20362;-85
2022/10/28 05:12:44;;;;;;;1.85;1.13;;;;;;;;;;5010436;28;20467;-84
2022/10/28 05:15:10;;;;;;;2.17;1.58;;;;;;;;;;5010859;28;20532;-85
2022/10/28 05:17:44;;;;;;;4.03;1.10;;;;;;;;;;5010465;28;20036;-87
2022/10/28 05:20:10;;;;;;;0.50;0.43;;;;;;;;;;5008750;28;20026;-85
2022/10/28 05:22:36;;;;;;;1.52;0.73;;;;;;;;;;5010054;28;20104;-85
2022/10/28 05:25:02;;;;;;;0.50;0.43;;;;;;;;;;4993146;28;20117;-84
2022/10/28 05:27:27;;;;;;;1.05;0.90;;;;;;;;;;5009921;28;20120;-86
2022/10/28 05:29:52;;;;;;;1.55;0.93;;;;;;;;;;5007507;28;20113;-85
2022/10/28 05:32:18;;;;;;;0.60;0.60;;;;;;;;;;5010482;28;20042;-84
2022/10/28 05:34:43;;;;;;;1.20;0.85;;;;;;;;;;5011646;28;20105;-83
2022/10/28 05:37:10;;;;;;;2.20;0.70;;;;;;;;;;4994267;28;20096;-83
2022/10/28 05:39:35;;;;;;;0.85;0.55;;;;;;;;;;4992138;28;20030;-82
2022/10/28 05:42:00;;;;;;;1.52;1.02;;;;;;;;;;4993663;28;20079;-84
2022/10/28 05:44:26;;;;;;;0.85;0.55;;;;;;;;;;5010835;28;20026;-83
2022/10/28 05:46:52;;;;;;;0.50;0.50;;;;;;;;;;5010766;28;20041;-84
2022/10/28 05:49:19;;;;;;;0.85;0.70;;;;;;;;;;5010872;28;20251;-83
2022/10/28 05:51:48;;;;;;;0.98;0.93;;;;;;;;;;5010951;28;20018;-85
2022/10/28 05:54:13;;;;;;;1.23;0.85;;;;;;;;;;5008522;28;20034;-83
2022/10/28 05:56:38;;;;;;;1.42;1.02;;;;;;;;;;4992675;28;20034;-85
2022/10/28 05:59:04;;;;;;;0.95;0.73;;;;;;;;;;4992772;28;20026;-84
2022/10/28 06:01:29;;;;;;;2.70;1.10;;;;;;;;;;5010483;28;20036;-84
2022/10/28 06:03:54;;;;;;;12.43;7.00;;;;;;;;;;4992758;28;20038;-84
2022/10/28 06:06:20;;;;;;;3.13;2.00;;;;;;;;;;4994283;28;20076;-84
2022/10/28 06:08:45;;;;;;;1.65;1.27;;;;;;;;;;5012428;28;20105;-84
2022/10/28 06:11:11;;;;;;;3.55;1.90;;;;;;;;;;5014883;28;20144;-84
2022/10/28 06:13:36;;;;;;;3.15;2.42;;;;;;;;;;4999792;28;20025;-84
2022/10/28 06:16:02;;;;;;;2.92;2.25;;;;;;;;;;5013883;28;20113;-84
2022/10/28 06:18:27;;;;;;;3.65;2.70;;;;;;;;;;5014705;28;20072;-84
2022/10/28 06:20:54;;;;;;;4.78;2.72;;;;;;;;;;5014232;28;20065;-84
2022/10/28 06:23:21;;;;;;;2.75;1.85;;;;;;;;;;5013210;28;20028;-84
2022/10/28 06:25:46;;;;;;;5.38;3.30;;;;;;;;;;4998875;28;20462;-83
2022/10/28 06:28:11;;;;;;;5.20;2.95;;;;;;;;;;5013725;28;20036;-83
2022/10/28 06:30:37;;;;;;;6.13;2.45;;;;;;;;;;5013458;28;20084;-83
2022/10/28 06:33:02;;;;;;;3.78;2.33;;;;;;;;;;5013181;28;20037;-82
2022/10/28 06:35:28;;;;;;;4.20;3.00;;;;;;;;;;4995868;28;20030;-85
2022/10/28 06:37:56;;;;;;;2.72;2.28;;;;;;;;;;5013735;28;20347;-82
2022/10/28 06:40:23;;;;;;;4.53;3.00;;;;;;;;;;5014162;28;20537;-84
2022/10/28 06:42:57;;;;;;;3.58;2.33;;;;;;;;;;5014439;28;20075;-84
2022/10/28 06:45:22;;;;;;;14.75;2.15;;;;;;;;;;5012322;28;20044;-84
2022/10/28 06:47:48;;;;;;;4.05;2.55;;;;;;;;;;5014603;28;20030;-85
2022/10/28 06:50:13;;;;;;;5.75;2.22;;;;;;;;;;5013261;28;20032;-84
2022/10/28 06:52:39;;;;;;;4.60;2.35;;;;;;;;;;4996187;28;20022;-85
2022/10/28 06:55:05;;;;;;;3.58;2.33;;;;;;;;;;5013138;28;20038;-85
2022/10/28 06:57:30;;;;;;;5.95;2.95;;;;;;;;;;4995351;28;20029;-85
2022/10/28 08:28:52;;;;;;;5.65;3.47;;;;;;;;;;4792315;23;20055;-84
2022/10/28 08:31:17;;;;;;;3.08;2.17;;;;;;;;;;4937522;29;20078;-84
2022/10/28 08:33:45;;;;;;;2.83;1.90;;;;;;;;;;4949321;28;20567;-84
2022/10/28 08:36:14;;;;;;;3.90;2.40;;;;;;;;;;4950063;29;20031;-84
2022/10/28 08:38:39;;;;;;;4.55;2.80;;;;;;;;;;4930722;29;20508;-84
2022/10/28 08:41:27;;;;;;;3.30;2.08;;;;;;;;;;4948855;29;20086;-83
2022/10/28 08:44:27;;;;;;;6.45;2.58;;;;;;;;;;4953507;29;20090;-84
2022/10/28 08:46:52;;;;;;;7.03;2.60;;;;;;;;;;4929191;29;20055;-84
2022/10/28 08:49:21;;;;;;;2.65;1.95;;;;;;;;;;4947212;28;20106;-83
2022/10/28 08:52:12;;;;;;;4.05;2.22;;;;;;;;;;4953672;28;20026;-84
2022/10/28 08:54:51;;;;;;;4.20;2.35;;;;;;;;;;4952691;29;20031;-85
2022/10/28 08:57:24;;;;;;;4.47;2.17;;;;;;;;;;4948316;28;20042;-84
2022/10/28 08:59:52;;;;;;;3.63;1.48;;;;;;;;;;4955475;28;20031;-86
2022/10/28 09:02:47;;;;;;;4.72;2.17;;;;;;;;;;4958534;28;20387;-85
2022/10/28 09:05:21;;;;;;;4.82;2.38;;;;;;;;;;4950513;28;20471;-83
2022/10/28 09:07:46;;;;;;;4.28;2.22;;;;;;;;;;4948079;28;20611;-86
2022/10/28 09:10:14;;;;;;;3.58;1.88;;;;;;;;;;4953590;29;20114;-84
2022/10/28 09:12:57;;;;;;;5.28;2.25;;;;;;;;;;4952449;29;20445;-84
2022/10/28 09:15:56;;;;;;;3.20;2.15;;;;;;;;;;4949624;29;20038;-83
2022/10/28 09:18:42;;;;;;;2.58;1.30;;;;;;;;;;4951160;29;20429;-84
2022/10/28 09:21:45;;;;;;;2.70;1.90;;;;;;;;;;4932325;28;20026;-84
2022/10/28 09:24:28;;;;;;;4.80;2.47;;;;;;;;;;4949725;28;20038;-83
2022/10/28 09:27:26;;;;;;;2.25;1.63;;;;;;;;;;4948098;29;20042;-84
2022/10/28 09:30:04;;;;;;;4.32;2.08;;;;;;;;;;4898083;29;20047;-85
2022/10/28 09:32:33;;;;;;;3.97;2.13;;;;;;;;;;4949574;28;20042;-85
2022/10/28 09:35:05;;;;;;;2.27;1.77;;;;;;;;;;4946967;29;20030;-84
2022/10/28 09:37:35;;;;;;;5.28;2.38;;;;;;;;;;4949725;28;20106;-84
2022/10/28 09:40:12;;;;;;;2.67;1.38;;;;;;;;;;4935628;28;20503;-85
2022/10/28 09:43:03;;;;;;;2.75;1.70;;;;;;;;;;4950812;28;20046;-85
2022/10/28 09:45:31;;;;;;;3.53;1.90;;;;;;;;;;4922724;29;20535;-83
2022/10/28 09:48:11;;;;;;;4.25;1.58;;;;;;;;;;4952258;28;20035;-85
2022/10/28 09:50:36;;;;;;;;;;;;;;;;;;4952994;29;20425;-86
2022/10/28 09:53:34;;;;;;;2.20;1.27;;;;;;;;;;4953058;29;19957;-85
2022/10/28 09:56:01;;;;;;;3.67;1.45;;;;;;;;;;4926684;29;20488;-85
2022/10/28 09:58:26;;;;;;;2.53;1.50;;;;;;;;;;4934907;28;20039;-85
2022/10/28 10:00:52;;;;;;;2.00;1.25;;;;;;;;;;4950107;29;20035;-86
2022/10/28 10:03:17;;;;;;;3.53;1.85;;;;;;;;;;4946172;28;20033;-84
2022/10/28 10:05:47;;;;;;;3.13;1.90;;;;;;;;;;4952608;28;20042;-83
2022/10/28 10:08:16;;;;;;;1.85;1.30;;;;;;;;;;4952004;29;20031;-85
2022/10/28 10:10:55;;;;;;;3.78;1.98;;;;;;;;;;4949109;28;20023;-83
2022/10/28 10:13:26;;;;;;;2.50;1.15;;;;;;;;;;4952529;29;20023;-84
2022/10/28 10:15:55;;;;;;;2.28;1.30;;;;;;;;;;4947773;29;20118;-83
2022/10/28 10:18:25;;;;;;;1.50;1.10;;;;;;;;;;4950208;28;20499;-85
2022/10/28 10:20:54;;;;;;;6.20;1.30;;;;;;;;;;4954063;28;20031;-85
2022/10/28 10:23:29;;;;;;;4.93;1.88;;;;;;;;;;4946520;29;20449;-83
2022/10/28 10:26:15;;;;;;;1.45;1.27;;;;;;;;;;4950140;28;20118;-84
2022/10/28 10:28:49;;;;;;;2.47;1.75;;;;;;;;;;4942664;28;20402;-85
2022/10/28 10:31:21;;;;;;;2.58;1.42;;;;;;;;;;4943339;28;20023;-84
2022/10/28 10:33:50;;;;;;;2.45;1.15;;;;;;;;;;4953182;28;20063;-85
2022/10/28 10:36:19;;;;;;;1.70;1.35;;;;;;;;;;4948581;28;20058;-85
2022/10/28 10:38:52;;;;;;;3.03;1.23;;;;;;;;;;4952661;28;20430;-84
2022/10/28 10:41:37;;;;;;;3.28;1.50;;;;;;;;;;4952419;29;20027;-85
2022/10/28 10:44:28;;;;;;;3.85;1.30;;;;;;;;;;4951921;29;20504;-84
2022/10/28 10:46:54;;;;;;;1.90;1.15;;;;;;;;;;4951921;28;20042;-84
2022/10/28 10:49:19;;;;;;;1.58;1.10;;;;;;;;;;4943716;29;20035;-84
2022/10/28 10:51:53;;;;;;;2.33;1.15;;;;;;;;;;4951430;28;20024;-84
2022/10/28 10:54:19;;;;;;;0.93;0.77;;;;;;;;;;4948421;28;20024;-85
2022/10/28 10:56:44;;;;;;;1.90;1.15;;;;;;;;;;4938526;29;20078;-84
2022/10/28 10:59:25;;;;;;;1.63;1.08;;;;;;;;;;4949496;28;20027;-84
2022/10/28 11:01:52;;;;;;;2.50;1.52;;;;;;;;;;4930350;29;20034;-85
2022/10/28 11:04:20;;;;;;;3.17;1.00;;;;;;;;;;4939022;29;20502;-83
2022/10/28 11:06:52;;;;;;;1.20;0.80;;;;;;;;;;4949359;28;20487;-84
2022/10/28 11:09:34;;;;;;;5.15;1.40;;;;;;;;;;4954031;29;20027;-84
2022/10/28 11:12:00;;;;;;;1.35;1.13;;;;;;;;;;4947290;29;20028;-84
2022/10/28 11:14:31;;;;;;;1.00;0.90;;;;;;;;;;4933164;29;20115;-84
2022/10/28 11:17:01;;;;;;;2.72;1.00;;;;;;;;;;4949830;28;20062;-83
2022/10/28 11:19:34;;;;;;;1.25;0.98;;;;;;;;;;4946481;28;20027;-83
2022/10/28 11:22:19;;;;;;;2.17;1.17;;;;;;;;;;4955257;29;20086;-84
2022/10/28 11:25:06;;;;;;;1.60;1.00;;;;;;;;;;4950995;28;20172;-84
2022/10/28 11:28:19;;;;;;;1.63;1.20;;;;;;;;;;4944549;28;20058;-84
2022/10/28 11:31:06;;;;;;;0.63;0.52;;;;;;;;;;4944778;28;20028;-84
2022/10/28 11:33:53;;;;;;;1.13;0.73;;;;;;;;;;4954334;28;20019;-84
2022/10/28 11:36:38;;;;;;;0.93;0.80;;;;;;;;;;4952154;28;20042;-85
2022/10/28 11:39:32;;;;;;;2.83;1.10;;;;;;;;;;4945166;28;20044;-85
2022/10/28 11:42:06;;;;;;;1.40;0.93;;;;;;;;;;4953461;29;20074;-85
2022/10/28 11:44:56;;;;;;;1.33;1.00;;;;;;;;;;4950026;28;20055;-84
2022/10/28 11:47:48;;;;;;;2.17;0.95;;;;;;;;;;4948791;29;20046;-84
2022/10/28 11:50:34;;;;;;;0.82;0.63;;;;;;;;;;4954674;29;20046;-83
2022/10/28 11:53:17;;;;;;;1.95;1.05;;;;;;;;;;4952105;29;20023;-83
2022/10/28 11:55:45;;;;;;;1.25;0.90;;;;;;;;;;4952209;28;20058;-85
2022/10/28 11:58:37;;;;;;;0.98;0.75;;;;;;;;;;4950739;28;20039;-84
2022/10/28 12:01:12;;;;;;;1.10;0.70;;;;;;;;;;4908831;29;20054;-85
2022/10/28 12:03:43;;;;;;;1.40;0.60;;;;;;;;;;4953041;28;20082;-85
2022/10/28 12:06:21;;;;;;;3.38;1.20;;;;;;;;;;4949161;29;20063;-85
2022/10/28 12:09:12;;;;;;;1.13;0.73;;;;;;;;;;4952804;29;20027;-84
2022/10/28 12:11:52;;;;;;;1.67;1.00;;;;;;;;;;4951714;29;20019;-84
2022/10/28 12:14:45;;;;;;;1.75;0.98;;;;;;;;;;4951840;29;20110;-85
2022/10/28 12:17:31;;;;;;;2.05;0.93;;;;;;;;;;4953647;29;20042;-84
2022/10/28 12:20:29;;;;;;;1.67;0.80;;;;;;;;;;4937573;29;20075;-85
2022/10/28 12:22:57;;;;;;;1.63;1.05;;;;;;;;;;4948340;29;20046;-85
2022/10/28 12:25:29;;;;;;;2.60;1.15;;;;;;;;;;4933386;29;20490;-84
2022/10/28 12:28:00;;;;;;;1.60;0.88;;;;;;;;;;4954788;29;20570;-86
2022/10/28 12:30:32;;;;;;;3.78;1.33;;;;;;;;;;4952168;29;20464;-86
2022/10/28 12:33:10;;;;;;;5.68;0.93;;;;;;;;;;4954087;29;20027;-85
2022/10/28 12:35:43;;;;;;;1.58;0.95;;;;;;;;;;4934149;29;20023;-86
2022/10/28 12:38:37;;;;;;;1.48;0.95;;;;;;;;;;4952187;28;20031;-85
2022/10/28 12:41:12;;;;;;;2.53;1.10;;;;;;;;;;4929904;29;20126;-85
2022/10/28 12:43:43;;;;;;;1.13;0.63;;;;;;;;;;4944760;29;20023;-86
2022/10/28 12:46:35;;;;;;;0.80;0.65;;;;;;;;;;4955683;28;20027;-85
2022/10/28 12:49:38;;;;;;;1.35;1.13;;;;;;;;;;4946809;28;20159;-86
2022/10/28 12:52:39;;;;;;;2.13;0.90;;;;;;;;;;4951265;29;20047;-85
2022/10/28 12:55:13;;;;;;;0.90;0.80;;;;;;;;;;4923580;28;20051;-85
2022/10/28 12:57:42;;;;;;;2.83;1.13;;;;;;;;;;4957763;28;20027;-85
2022/10/28 13:00:28;;;;;;;1.00;0.90;;;;;;;;;;4951311;28;20499;-85
2022/10/28 13:03:09;;;;;;;1.80;1.13;;;;;;;;;;4949996;28;20127;-86
2022/10/28 13:06:01;;;;;;;2.33;1.17;;;;;;;;;;4953199;29;20097;-86
2022/10/28 13:08:51;;;;;;;1.48;0.93;;;;;;;;;;4918854;29;20122;-86
2022/10/28 13:11:19;;;;;;;2.17;1.40;;;;;;;;;;4950953;28;20078;-85
2022/10/28 13:13:47;;;;;;;4.03;1.15;;;;;;;;;;4944887;29;20039;-86
2022/10/28 13:16:37;;;;;;;0.98;0.65;;;;;;;;;;4948080;29;20031;-86
2022/10/28 13:19:23;;;;;;;2.00;1.10;;;;;;;;;;4952013;29;20027;-86
2022/10/28 13:22:17;;;;;;;2.95;1.08;;;;;;;;;;4914260;28;20043;-84
2022/10/28 13:25:26;;;;;;;2.13;1.00;;;;;;;;;;4932698;29;20070;-85
2022/10/28 13:27:56;;;;;;;0.90;0.70;;;;;;;;;;4949036;28;20090;-86
2022/10/28 13:30:22;;;;;;;1.92;1.05;;;;;;;;;;4951002;28;20030;-87
2022/10/28 13:33:08;;;;;;;1.40;1.02;;;;;;;;;;4935502;29;20027;-84
2022/10/28 13:35:35;;;;;;;1.10;0.80;;;;;;;;;;4953527;29;20027;-84
2022/10/28 13:38:02;;;;;;;3.15;1.40;;;;;;;;;;4952853;29;20034;-85
2022/10/28 13:40:30;;;;;;;1.02;0.80;;;;;;;;;;4947010;29;20054;-86
2022/10/28 13:42:56;;;;;;;1.75;1.10;;;;;;;;;;4931440;29;20031;-85
2022/10/28 13:45:47;;;;;;;1.13;0.80;;;;;;;;;;4952972;29;20162;-86
2022/10/28 13:48:27;;;;;;;1.83;1.13;;;;;;;;;;4953080;29;20023;-85
2022/10/28 13:51:13;;;;;;;1.67;1.17;;;;;;;;;;4951082;29;20028;-87
2022/10/28 13:53:51;;;;;;;3.47;1.10;;;;;;;;;;4929169;29;20031;-85
2022/10/28 13:56:26;;;;;;;1.05;0.75;;;;;;;;;;4951022;29;20023;-84
2022/10/28 13:58:54;;;;;;;2.55;1.35;;;;;;;;;;4951845;28;20436;-85
2022/10/28 14:01:38;;;;;;;1.48;1.10;;;;;;;;;;4956095;28;20019;-85
2022/10/28 14:04:04;;;;;;;1.13;0.65;;;;;;;;;;4952094;28;20043;-85
2022/10/28 14:06:32;;;;;;;1.67;0.80;;;;;;;;;;4951974;29;20031;-87
2022/10/28 14:08:57;;;;;;;2.38;1.25;;;;;;;;;;4949998;29;20118;-84
2022/10/28 14:11:27;;;;;;;1.65;1.10;;;;;;;;;;4928913;29;20106;-84
2022/10/28 14:13:58;;;;;;;1.38;0.98;;;;;;;;;;4950782;28;20038;-86
2022/10/28 14:16:36;;;;;;;1.08;0.98;;;;;;;;;;4948944;29;20114;-85
2022/10/28 14:19:10;;;;;;;1.77;1.02;;;;;;;;;;4950280;29;20085;-84
2022/10/28 14:21:42;;;;;;;1.20;0.98;;;;;;;;;;4940718;28;20028;-84
2022/10/28 14:24:32;;;;;;;1.30;1.00;;;;;;;;;;4945696;29;20373;-84
2022/10/28 14:27:14;;;;;;;1.33;1.23;;;;;;;;;;4948571;28;20106;-84
2022/10/28 14:29:48;;;;;;;1.48;1.23;;;;;;;;;;4937376;29;20050;-84
2022/10/28 14:32:32;;;;;;;2.80;1.85;;;;;;;;;;4956378;29;20114;-85
2022/10/28 14:35:10;;;;;;;2.88;1.95;;;;;;;;;;4953703;29;20125;-86
2022/10/28 14:37:50;;;;;;;2.45;1.98;;;;;;;;;;4954074;29;20163;-86
2022/10/28 14:40:42;;;;;;;3.65;2.10;;;;;;;;;;4950413;28;20031;-87
2022/10/28 14:43:45;;;;;;;2.50;1.45;;;;;;;;;;4929030;29;20043;-87
2022/10/28 14:46:28;;;;;;;2.35;1.05;;;;;;;;;;4954042;29;20110;-86
2022/10/28 14:48:57;;;;;;;2.30;1.17;;;;;;;;;;4954369;28;20027;-87
2022/10/28 14:51:26;;;;;;;1.88;1.15;;;;;;;;;;4930554;29;20138;-86
2022/10/28 14:53:59;;;;;;;1.73;0.70;;;;;;;;;;4938859;28;20035;-86
2022/10/28 14:56:30;;;;;;;1.63;0.93;;;;;;;;;;4951197;29;20452;-86
2022/10/28 14:59:24;;;;;;;7.22;1.40;;;;;;;;;;4950751;28;20506;-88
2022/10/28 15:02:02;;;;;;;1.40;1.00;;;;;;;;;;4952845;29;20028;-86
2022/10/28 15:04:29;;;;;;;0.90;0.70;;;;;;;;;;4954879;29;20489;-85
2022/10/28 15:06:54;;;;;;;2.88;1.13;;;;;;;;;;4934319;29;20087;-86
2022/10/28 15:09:24;;;;;;;0.63;0.63;;;;;;;;;;4929558;29;20825;-86
2022/10/28 15:11:51;;;;;;;5.80;0.90;;;;;;;;;;4954553;28;20530;-87
2022/10/28 15:14:51;;;;;;;0.77;0.65;;;;;;;;;;4952168;28;20769;-86
2022/10/28 15:17:25;;;;;;;1.17;0.80;;;;;;;;;;4910260;28;20713;-86
2022/10/28 15:19:55;;;;;;;2.10;0.90;;;;;;;;;;4953069;28;20494;-88
2022/10/28 15:22:22;;;;;;;1.30;1.02;;;;;;;;;;4931618;28;20545;-88
2022/10/28 15:25:12;;;;;;;1.02;0.93;;;;;;;;;;4930213;29;20122;-86
2022/10/28 15:27:39;;;;;;;0.55;0.55;;;;;;;;;;4936414;28;20056;-87
2022/10/28 15:30:22;;;;;;;1.15;0.80;;;;;;;;;;4936255;29;20043;-86
2022/10/28 15:32:54;;;;;;;1.52;1.02;;;;;;;;;;4954733;29;20027;-85
2022/10/28 15:35:25;;;;;;;0.63;0.63;;;;;;;;;;4936126;28;20384;-84
2022/10/28 15:37:52;;;;;;;2.15;0.90;;;;;;;;;;4936618;28;20464;-84
2022/10/28 15:40:26;;;;;;;1.23;0.95;;;;;;;;;;4936245;29;20039;-87
2022/10/28 15:43:05;;;;;;;0.68;0.60;;;;;;;;;;4937192;29;20031;-85
2022/10/28 15:45:33;;;;;;;2.75;1.20;;;;;;;;;;4951184;28;20353;-85
2022/10/28 15:48:02;;;;;;;1.50;1.15;;;;;;;;;;4955527;29;20090;-84
2022/10/28 15:50:34;;;;;;;1.02;0.90;;;;;;;;;;4954170;29;20035;-83
2022/10/28 15:53:08;;;;;;;1.27;0.80;;;;;;;;;;4953442;29;20425;-85
2022/10/28 15:55:34;;;;;;;1.33;0.77;;;;;;;;;;4955424;29;20026;-84
2022/10/28 15:58:21;;;;;;;1.15;0.88;;;;;;;;;;4954898;29;20480;-85
2022/10/28 16:00:55;;;;;;;1.25;0.98;;;;;;;;;;4949702;29;20027;-88
2022/10/28 16:03:39;;;;;;;0.93;0.75;;;;;;;;;;4954829;29;20031;-85
2022/10/28 16:06:16;;;;;;;1.30;0.75;;;;;;;;;;4954212;29;20042;-86
2022/10/28 16:08:42;;;;;;;0.63;0.52;;;;;;;;;;4936433;29;20400;-86
2022/10/28 16:11:15;;;;;;;1.75;0.80;;;;;;;;;;4950987;29;20031;-86
2022/10/28 16:13:47;;;;;;;1.00;0.90;;;;;;;;;;4954404;28;20031;-85
2022/10/28 16:16:21;;;;;;;1.60;1.00;;;;;;;;;;4948739;28;20030;-86
2022/10/28 16:18:56;;;;;;;2.03;1.05;;;;;;;;;;4951782;29;20038;-85
2022/10/28 16:21:24;;;;;;;3.88;1.45;;;;;;;;;;4929585;29;20061;-84
2022/10/28 16:23:55;;;;;;;1.23;0.82;;;;;;;;;;4932422;29;20054;-84
2022/10/28 16:26:22;;;;;;;1.75;1.02;;;;;;;;;;4930675;29;20074;-85
2022/10/28 16:28:47;;;;;;;1.17;1.08;;;;;;;;;;4954902;28;20093;-85
2022/10/28 16:31:18;;;;;;;1.23;0.82;;;;;;;;;;4929899;29;20411;-86
2022/10/28 16:33:43;;;;;;;1.48;1.35;;;;;;;;;;4953477;29;20023;-86
2022/10/28 16:36:09;;;;;;;1.92;1.10;;;;;;;;;;4954169;29;20081;-87
2022/10/28 16:38:35;;;;;;;0.82;0.77;;;;;;;;;;4931760;29;20039;-86
2022/10/28 16:41:02;;;;;;;1.58;0.80;;;;;;;;;;4936727;29;20035;-84
2022/10/28 16:43:29;;;;;;;1.73;1.20;;;;;;;;;;4947022;28;20118;-87
2022/10/28 16:45:57;;;;;;;1.45;0.90;;;;;;;;;;4953400;29;20039;-87
2022/10/28 16:48:27;;;;;;;0.90;0.65;;;;;;;;;;4934853;29;20041;-85